Time;durP1;ratioP1;P1;durP2;ratioP2;P2;SDS_P1;SDS_P2;PMS_P1;PMS_P2;Temp;Humidity;BMP_temperature;BMP_pressure;BME280_temperature;BME280_humidity;BME280_pressure;Samples;Min_cycle;Max_cycle;Signal;HPM_P1;HPM_P2
2023/07/12 00:01:27;;;;;;;13.43;12.38;;;;;;;20.68;77.48;93180.84;5060484;28;20253;-78
2023/07/12 00:03:53;;;;;;;15.32;13.02;;;;;;;20.67;77.84;93179.28;5069395;28;20185;-79
2023/07/12 00:06:22;;;;;;;14.63;13.27;;;;;;;20.51;77.55;93174.94;5052483;28;20222;-79
2023/07/12 00:08:48;;;;;;;15.45;14.00;;;;;;;20.44;79.19;93164.03;5033078;28;20179;-78
2023/07/12 00:11:19;;;;;;;14.48;13.32;;;;;;;20.55;78.64;93170.50;5049245;28;20232;-79
2023/07/12 00:13:45;;;;;;;14.95;13.65;;;;;;;20.40;79.96;93165.81;5030929;28;20236;-79
2023/07/12 00:16:38;;;;;;;14.00;12.60;;;;;;;20.18;80.65;93174.88;5052761;28;20226;-79
2023/07/12 00:19:04;;;;;;;15.60;13.95;;;;;;;20.32;80.24;93167.44;5047695;28;20316;-79
2023/07/12 00:21:30;;;;;;;13.15;12.18;;;;;;;20.18;80.99;93156.31;5056995;28;20234;-79
2023/07/12 00:23:58;;;;;;;13.00;11.90;;;;;;;20.36;79.63;93157.72;5048483;28;20200;-79
2023/07/12 00:26:32;;;;;;;13.90;12.65;;;;;;;20.31;79.42;93165.09;5049400;28;20229;-79
2023/07/12 00:29:00;;;;;;;13.13;12.23;;;;;;;20.20;80.20;93162.03;5048743;28;20212;-79
2023/07/12 00:31:25;;;;;;;13.87;12.53;;;;;;;20.13;79.06;93151.19;5049276;28;20220;-79
2023/07/12 00:33:51;;;;;;;13.48;12.38;;;;;;;20.29;79.48;93160.13;5048206;28;20212;-80
2023/07/12 00:36:20;;;;;;;13.75;12.38;;;;;;;20.46;80.31;93151.25;5048953;28;20241;-79
2023/07/12 00:38:45;;;;;;;15.25;13.25;;;;;;;20.42;79.52;93145.81;5049981;28;20197;-79
2023/07/12 00:41:16;;;;;;;14.60;13.35;;;;;;;20.26;79.60;93141.44;5049360;28;20223;-79
2023/07/12 00:43:44;;;;;;;13.68;12.57;;;;;;;20.35;80.64;93140.25;5049939;28;20216;-79
2023/07/12 00:46:16;;;;;;;14.00;12.50;;;;;;;20.27;81.31;93153.56;5031837;28;20237;-81
2023/07/12 00:48:41;;;;;;;13.85;12.55;;;;;;;20.19;80.22;93141.16;5048957;28;21069;-81
2023/07/12 00:51:32;;;;;;;14.50;13.10;;;;;;;20.14;80.87;93150.09;5030769;28;20236;-80
2023/07/12 00:53:58;;;;;;;14.80;13.35;;;;;;;20.13;81.16;93148.53;5035719;28;20224;-81
2023/07/12 00:56:25;;;;;;;15.43;13.85;;;;;;;19.95;81.09;93131.19;5030284;28;20221;-80
2023/07/12 00:58:55;;;;;;;14.20;12.87;;;;;;;20.00;81.74;93124.91;5048935;28;20279;-81
2023/07/12 01:01:21;;;;;;;17.53;13.97;;;;;;;19.90;82.15;93128.72;5030769;28;20292;-80
2023/07/12 01:03:47;;;;;;;14.60;13.47;;;;;;;20.06;82.39;93142.94;5048108;28;20193;-81
2023/07/12 01:06:16;;;;;;;14.73;13.45;;;;;;;20.03;82.59;93138.28;5064234;28;20287;-81
2023/07/12 01:08:42;;;;;;;12.85;11.70;;;;;;;20.05;82.60;93141.41;5070341;28;20193;-81
2023/07/12 01:11:10;;;;;;;16.55;12.85;;;;;;;20.09;82.62;93139.66;5068815;28;20248;-81
2023/07/12 01:13:38;;;;;;;13.82;12.63;;;;;;;19.92;82.70;93131.81;5069439;28;20229;-81
2023/07/12 01:16:03;;;;;;;14.00;12.50;;;;;;;19.95;83.33;93133.84;5076594;28;20223;-80
2023/07/12 01:18:29;;;;;;;14.35;13.10;;;;;;;19.98;82.79;93125.25;5083829;28;20204;-80
2023/07/12 01:21:15;;;;;;;13.68;12.63;;;;;;;20.05;83.25;93135.31;5081727;28;20292;-81
2023/07/12 01:23:43;;;;;;;13.20;12.05;;;;;;;20.00;82.70;93135.53;5076120;28;20224;-81
2023/07/12 01:26:19;;;;;;;13.60;12.25;;;;;;;19.99;83.60;93145.34;5072670;28;20224;-81
2023/07/12 01:28:47;;;;;;;14.02;12.70;;;;;;;20.01;83.51;93129.13;5084656;28;20179;-81
2023/07/12 01:31:13;;;;;;;14.10;12.63;;;;;;;19.87;84.63;93134.69;5072668;28;20233;-81
2023/07/12 01:33:38;;;;;;;15.57;14.23;;;;;;;19.86;84.07;93132.34;5071728;28;20193;-81
2023/07/12 01:36:04;;;;;;;17.77;13.17;;;;;;;19.82;83.67;93134.88;5076704;28;20234;-83
2023/07/12 01:38:29;;;;;;;14.73;13.20;;;;;;;19.91;84.41;93135.56;5072962;28;20227;-82
2023/07/12 01:40:54;;;;;;;14.77;13.57;;;;;;;19.90;84.11;93141.19;5059202;28;20256;-82
2023/07/12 01:43:20;;;;;;;14.77;13.30;;;;;;;19.97;84.28;93134.28;5088005;28;20214;-81
2023/07/12 01:45:45;;;;;;;13.93;12.73;;;;;;;19.92;84.04;93142.41;5072323;28;20224;-81
2023/07/12 01:48:10;;;;;;;14.67;13.37;;;;;;;19.74;85.19;93141.00;5076969;28;20185;-82
2023/07/12 01:50:36;;;;;;;14.57;12.63;;;;;;;19.83;85.03;93140.94;5072183;28;20695;-81
2023/07/12 01:53:01;;;;;;;13.67;12.27;;;;;;;19.71;84.89;93140.84;5072640;28;20192;-82
2023/07/12 01:55:26;;;;;;;17.53;13.17;;;;;;;19.64;85.75;93151.97;5078010;28;20223;-82
2023/07/12 01:57:52;;;;;;;16.40;13.17;;;;;;;19.60;84.73;93145.75;5061195;28;20199;-82
2023/07/12 02:00:17;;;;;;;15.45;14.15;;;;;;;19.61;85.88;93141.22;5071593;28;20248;-79
2023/07/12 02:02:43;;;;;;;14.07;12.77;;;;;;;19.66;85.67;93138.41;5083189;28;20242;-82
2023/07/12 02:05:08;;;;;;;14.13;12.83;;;;;;;19.58;85.57;93147.94;5089007;28;20247;-81
2023/07/12 02:07:34;;;;;;;14.03;12.73;;;;;;;19.55;85.35;93148.56;5091431;28;20244;-83
2023/07/12 02:10:17;;;;;;;15.30;13.10;;;;;;;19.60;86.02;93140.44;5053079;28;20239;-81
2023/07/12 02:12:43;;;;;;;14.57;13.17;;;;;;;19.59;85.97;93149.50;5083887;28;20224;-82
2023/07/12 02:15:11;;;;;;;17.10;13.57;;;;;;;19.49;86.13;93149.06;5079963;28;20236;-82
2023/07/12 02:17:37;;;;;;;14.30;13.03;;;;;;;19.57;85.19;93154.34;5073904;28;20191;-82
2023/07/12 02:20:04;;;;;;;13.93;12.67;;;;;;;19.58;85.42;93153.22;5075972;28;20247;-82
2023/07/12 02:22:30;;;;;;;14.17;12.77;;;;;;;19.64;85.53;93154.63;5079249;28;20177;-78
2023/07/12 02:24:56;;;;;;;14.18;12.82;;;;;;;19.63;85.60;93160.22;5071652;28;20317;-82
2023/07/12 02:27:22;;;;;;;14.80;13.48;;;;;;;19.68;86.35;93160.03;5098389;28;20192;-82
2023/07/12 02:29:47;;;;;;;13.43;12.37;;;;;;;19.47;85.94;93146.75;5078534;28;20234;-81
2023/07/12 02:32:12;;;;;;;13.83;12.77;;;;;;;19.51;85.70;93168.84;5087538;28;20192;-82
2023/07/12 02:34:38;;;;;;;14.70;13.38;;;;;;;19.47;86.97;93167.94;5071538;28;20232;-82
2023/07/12 02:37:03;;;;;;;14.23;12.87;;;;;;;19.50;87.04;93166.53;5070788;28;20193;-83
2023/07/12 02:39:29;;;;;;;14.83;13.37;;;;;;;19.43;86.89;93151.13;5071652;28;20232;-82
2023/07/12 02:41:54;;;;;;;15.40;14.00;;;;;;;19.48;87.08;93169.50;5071676;28;20192;-82
2023/07/12 02:44:21;;;;;;;14.73;13.43;;;;;;;19.48;87.08;93168.72;5070915;28;20217;-81
2023/07/12 02:46:46;;;;;;;13.82;12.52;;;;;;;19.36;86.77;93158.81;5072411;28;20188;-82
2023/07/12 02:49:12;;;;;;;14.23;13.03;;;;;;;19.43;86.53;93182.91;5085713;28;20247;-83
2023/07/12 02:51:38;;;;;;;15.07;13.73;;;;;;;19.43;86.95;93176.84;5075136;28;20218;-82
2023/07/12 02:54:03;;;;;;;14.17;12.80;;;;;;;19.50;86.45;93171.81;5071989;28;20190;-82
2023/07/12 02:56:28;;;;;;;14.57;12.83;;;;;;;19.50;87.30;93183.22;5053285;28;21699;-82
2023/07/12 02:58:54;;;;;;;14.20;12.80;;;;;;;19.55;86.73;93179.59;5069597;28;20200;-80
2023/07/12 03:01:20;;;;;;;14.93;13.53;;;;;;;19.55;87.33;93176.94;5065153;28;20251;-82
2023/07/12 03:03:45;;;;;;;15.67;14.10;;;;;;;19.61;86.09;93184.38;5064108;28;20195;-82
2023/07/12 03:06:11;;;;;;;15.33;13.73;;;;;;;19.50;86.48;93199.09;5066251;28;20443;-83
2023/07/12 03:08:37;;;;;;;14.63;13.40;;;;;;;19.48;87.66;93192.56;5070177;28;20196;-82
2023/07/12 03:11:04;;;;;;;14.53;13.27;;;;;;;19.55;87.71;93190.94;5070865;28;20248;-82
2023/07/12 03:13:30;;;;;;;15.33;14.00;;;;;;;19.66;87.20;93194.78;5085134;28;20253;-82
2023/07/12 03:15:56;;;;;;;14.43;13.32;;;;;;;19.70;86.36;93194.94;5079502;28;20239;-82
2023/07/12 03:18:21;;;;;;;14.07;12.77;;;;;;;19.73;86.03;93200.38;5070888;28;20201;-82
2023/07/12 03:20:46;;;;;;;14.13;12.93;;;;;;;19.77;85.49;93196.00;5073644;28;20220;-81
2023/07/12 03:23:12;;;;;;;15.05;13.55;;;;;;;19.66;85.86;93192.16;5063946;28;20192;-82
2023/07/12 03:25:37;;;;;;;14.40;13.00;;;;;;;19.76;85.51;93194.44;5065640;28;20308;-82
2023/07/12 03:28:03;;;;;;;13.93;12.63;;;;;;;19.87;84.71;93203.59;5077596;28;20212;-81
2023/07/12 03:30:28;;;;;;;13.90;12.70;;;;;;;20.03;85.09;93201.16;5069920;28;20240;-79
2023/07/12 03:32:53;;;;;;;14.68;13.38;;;;;;;20.01;85.14;93203.34;5093464;28;20192;-81
2023/07/12 03:35:19;;;;;;;14.93;13.52;;;;;;;20.03;85.40;93207.22;5053002;28;20239;-81
2023/07/12 03:37:44;;;;;;;14.00;12.70;;;;;;;19.93;85.95;93199.66;5071111;28;20188;-82
2023/07/12 03:40:11;;;;;;;14.85;13.38;;;;;;;20.14;85.03;93208.41;5070154;28;20236;-79
2023/07/12 03:42:36;;;;;;;14.10;12.80;;;;;;;20.14;85.61;93200.47;5052538;28;20197;-81
2023/07/12 03:45:02;;;;;;;14.50;12.98;;;;;;;20.45;84.51;93211.47;5070451;28;20232;-81
2023/07/12 03:47:27;;;;;;;14.50;13.00;;;;;;;20.60;83.72;93213.56;5058917;28;20212;-82
2023/07/12 03:49:54;;;;;;;14.20;12.80;;;;;;;20.65;83.65;93223.19;5074681;28;20221;-81
2023/07/12 03:52:20;;;;;;;15.45;13.75;;;;;;;20.98;82.90;93226.66;5058197;28;20184;-83
2023/07/12 03:54:46;;;;;;;13.77;12.38;;;;;;;21.20;81.52;93228.16;5070192;28;20236;-82
2023/07/12 03:57:11;;;;;;;13.90;12.65;;;;;;;20.85;81.49;93234.88;5082270;28;20177;-74
2023/07/12 03:59:36;;;;;;;14.90;12.98;;;;;;;21.03;81.95;93238.97;5069467;28;20236;-74
2023/07/12 04:02:02;;;;;;;13.45;12.20;;;;;;;21.15;81.43;93234.47;5070275;28;20204;-74
2023/07/12 04:04:27;;;;;;;13.68;12.38;;;;;;;21.54;80.04;93243.75;5069396;28;20936;-74
2023/07/12 04:06:52;;;;;;;15.52;12.57;;;;;;;21.90;78.47;93235.78;5070224;28;20186;-74
2023/07/12 04:09:18;;;;;;;14.18;12.77;;;;;;;21.99;77.95;93231.16;5062872;28;20183;-74
2023/07/12 04:11:43;;;;;;;15.10;12.48;;;;;;;22.38;77.24;93225.13;5070273;28;20188;-74
2023/07/12 04:14:09;;;;;;;16.33;12.95;;;;;;;22.36;77.55;93222.03;5052171;28;20298;-74
2023/07/12 04:16:34;;;;;;;13.95;12.70;;;;;;;22.23;78.54;93221.28;5072879;28;20229;-74
2023/07/12 04:18:59;;;;;;;15.35;12.35;;;;;;;22.18;79.16;93232.13;5069739;28;20211;-72
2023/07/12 04:21:25;;;;;;;14.25;12.13;;;;;;;22.32;78.58;93215.06;5071649;28;20234;-74
2023/07/12 04:23:52;;;;;;;14.60;13.10;;;;;;;22.40;78.46;93220.22;5068920;28;20200;-74
2023/07/12 04:26:18;;;;;;;14.32;12.93;;;;;;;22.59;78.17;93225.75;5069089;28;20231;-74
2023/07/12 04:28:48;;;;;;;16.08;14.45;;;;;;;22.59;76.54;93219.66;5069308;28;20214;-74
2023/07/12 04:31:15;;;;;;;14.40;13.00;;;;;;;22.59;78.09;93230.31;5075924;28;20216;-69
2023/07/12 04:33:41;;;;;;;14.27;12.88;;;;;;;22.38;78.11;93219.81;5059583;28;20223;-69
2023/07/12 04:36:09;;;;;;;16.10;14.70;;;;;;;22.42;78.25;93222.56;5066054;28;20255;-70
2023/07/12 04:38:35;;;;;;;15.68;14.18;;;;;;;22.61;76.69;93228.88;5065086;28;20241;-70
2023/07/12 04:41:01;;;;;;;18.40;15.25;;;;;;;22.65;77.39;93235.06;5068008;28;20220;-71
2023/07/12 04:43:26;;;;;;;15.57;14.10;;;;;;;22.86;74.13;93225.03;5062090;28;20251;-73
2023/07/12 04:45:52;;;;;;;17.08;15.35;;;;;;;22.39;77.14;93229.34;5062280;28;20806;-72
2023/07/12 04:48:18;;;;;;;20.02;16.02;;;;;;;22.57;76.56;93235.97;5056385;28;20215;-74
2023/07/12 04:50:44;;;;;;;15.93;14.52;;;;;;;22.63;75.85;93228.53;5065555;28;20239;-72
2023/07/12 04:53:12;;;;;;;17.67;15.75;;;;;;;22.91;74.50;93242.66;5067006;28;20192;-71
2023/07/12 04:55:37;;;;;;;18.33;15.18;;;;;;;23.61;72.12;93245.28;5067606;28;20231;-70
2023/07/12 04:58:03;;;;;;;16.50;14.90;;;;;;;23.84;71.86;93247.38;5057021;28;20209;-68
2023/07/12 05:00:28;;;;;;;17.60;15.85;;;;;;;22.81;76.32;93251.88;5071698;28;20242;-71
2023/07/12 05:02:53;;;;;;;20.45;16.50;;;;;;;23.16;74.34;93212.88;5071934;28;20204;-70
2023/07/12 05:05:20;;;;;;;18.85;16.95;;;;;;;23.25;73.57;93242.84;5064762;28;20236;-72
2023/07/12 05:07:47;;;;;;;15.38;13.98;;;;;;;23.20;74.74;93243.06;5069403;28;20251;-72
2023/07/12 05:10:12;;;;;;;19.15;15.25;;;;;;;23.63;73.30;93248.41;5068206;28;20258;-73
2023/07/12 05:12:39;;;;;;;19.08;16.42;;;;;;;23.77;72.47;93243.41;5071669;28;20216;-72
2023/07/12 05:15:05;;;;;;;16.58;14.82;;;;;;;23.54;73.28;93239.81;5061231;28;20236;-72
2023/07/12 05:17:31;;;;;;;17.77;15.52;;;;;;;23.94;72.34;93236.19;5070148;28;20169;-73
2023/07/12 05:19:56;;;;;;;15.60;14.00;;;;;;;24.16;69.67;93238.25;5072937;28;20247;-71
2023/07/12 05:22:22;;;;;;;16.33;14.02;;;;;;;23.75;67.30;93234.97;5072921;28;20191;-73
2023/07/12 05:24:48;;;;;;;18.00;14.30;;;;;;;24.30;68.23;93238.56;5069996;28;20237;-73
2023/07/12 05:27:13;;;;;;;17.13;15.32;;;;;;;24.40;64.69;93227.38;5068952;28;20183;-70
2023/07/12 05:29:39;;;;;;;15.57;13.98;;;;;;;24.62;65.01;93246.16;5066903;28;20288;-70
2023/07/12 05:32:04;;;;;;;16.05;14.43;;;;;;;24.77;64.48;93236.56;5067102;28;20223;-70
2023/07/12 05:34:30;;;;;;;15.63;13.98;;;;;;;25.43;62.91;93245.16;5070789;28;20192;-71
2023/07/12 05:36:55;;;;;;;16.95;15.30;;;;;;;25.04;64.28;93246.28;5063698;28;20214;-70
2023/07/12 05:39:21;;;;;;;18.05;16.13;;;;;;;25.41;63.92;93243.97;5065832;28;20211;-70
2023/07/12 05:41:46;;;;;;;19.83;14.38;;;;;;;26.69;60.15;93249.13;5072159;28;20208;-70
2023/07/12 05:44:12;;;;;;;18.20;15.23;;;;;;;28.87;51.72;93257.44;5068223;28;20208;-71
2023/07/12 05:46:37;;;;;;;20.02;14.63;;;;;;;28.16;51.72;93276.84;5070917;28;20213;-70
2023/07/12 05:49:03;;;;;;;20.70;14.75;;;;;;;30.25;48.37;93264.03;5068101;28;20236;-70
2023/07/12 05:51:29;;;;;;;15.70;14.20;;;;;;;33.70;38.19;93266.97;5070215;28;20217;-80
2023/07/12 05:53:54;;;;;;;17.90;16.20;;;;;;;35.34;34.91;93291.91;5075350;28;20233;-80
2023/07/12 05:56:19;;;;;;;15.55;13.98;;;;;;;36.67;33.01;93288.31;5061420;28;20234;-79
2023/07/12 05:58:45;;;;;;;16.55;13.23;;;;;;;38.73;29.70;93293.84;5071302;28;20213;-77
2023/07/12 06:01:10;;;;;;;14.40;12.50;;;;;;;39.86;26.92;93310.69;5053580;28;20225;-77
2023/07/12 06:03:36;;;;;;;16.55;13.95;;;;;;;37.66;29.66;93297.41;5047401;28;20193;-77
2023/07/12 06:06:05;;;;;;;13.57;12.15;;;;;;;39.10;28.58;93314.88;5052134;28;20298;-77
2023/07/12 06:08:31;;;;;;;18.05;12.52;;;;;;;39.86;26.58;93310.69;5052456;28;20263;-77
2023/07/12 06:10:56;;;;;;;14.43;12.25;;;;;;;39.42;27.25;93320.06;5051908;28;20229;-77
2023/07/12 06:13:22;;;;;;;13.55;12.25;;;;;;;39.43;27.46;93316.09;5060674;28;20256;-78
2023/07/12 06:15:47;;;;;;;15.35;12.32;;;;;;;38.33;27.83;93312.63;5051114;28;20210;-79
2023/07/12 06:18:12;;;;;;;13.35;11.82;;;;;;;40.56;25.22;93329.94;5043874;28;20201;-79
2023/07/12 06:20:38;;;;;;;14.82;10.77;;;;;;;38.94;27.53;93323.19;5046540;28;20225;-76
2023/07/12 06:23:03;;;;;;;14.20;12.43;;;;;;;36.20;29.61;93306.88;5051122;28;20212;-78
2023/07/12 06:25:29;;;;;;;14.43;12.93;;;;;;;38.45;27.96;93315.34;5050789;28;20229;-79
2023/07/12 06:27:55;;;;;;;17.83;12.25;;;;;;;41.29;24.37;93326.22;5051134;28;20201;-77
2023/07/12 06:30:20;;;;;;;14.93;13.32;;;;;;;41.99;22.72;93327.16;5050620;28;20251;-77
2023/07/12 06:32:46;;;;;;;12.82;11.57;;;;;;;41.63;23.84;93316.19;5034491;28;20189;-78
2023/07/12 06:35:12;;;;;;;13.23;11.25;;;;;;;42.12;23.71;93316.75;5050277;28;20285;-77
2023/07/12 06:37:38;;;;;;;13.82;11.02;;;;;;;42.42;23.23;93319.28;5051639;28;20194;-77
2023/07/12 06:40:05;;;;;;;14.93;12.65;;;;;;;38.05;27.87;93297.84;5051675;28;20230;-78
2023/07/12 06:42:31;;;;;;;13.32;11.45;;;;;;;40.73;24.52;93314.81;5039487;28;20186;-77
2023/07/12 06:44:56;;;;;;;15.00;11.10;;;;;;;40.21;24.09;93320.31;5051109;28;20297;-77
2023/07/12 06:47:21;;;;;;;17.45;11.80;;;;;;;37.11;28.51;93300.44;5051816;28;20182;-78
2023/07/12 06:49:47;;;;;;;16.40;12.07;;;;;;;36.82;29.54;93286.78;5050975;28;20226;-77
2023/07/12 06:52:12;;;;;;;18.23;11.80;;;;;;;36.78;29.18;93288.84;5051131;28;20193;-76
2023/07/12 06:54:38;;;;;;;15.40;12.55;;;;;;;33.75;34.95;93271.94;5049803;28;20268;-77
2023/07/12 06:57:04;;;;;;;16.95;12.55;;;;;;;32.54;37.37;93275.53;5051635;28;20182;-77
2023/07/12 06:59:29;;;;;;;20.45;14.18;;;;;;;30.75;41.75;93270.94;5050668;28;20213;-76
2023/07/12 07:01:55;;;;;;;14.63;13.38;;;;;;;30.17;44.17;93263.22;5051416;28;20212;-75
2023/07/12 07:04:20;;;;;;;14.98;13.55;;;;;;;29.58;47.08;93259.28;5050759;28;20202;-77
2023/07/12 07:06:46;;;;;;;16.50;13.90;;;;;;;29.26;50.59;93258.38;5062983;28;20212;-77
2023/07/12 07:09:11;;;;;;;17.15;14.63;;;;;;;28.58;54.48;93255.72;5051038;28;20703;-77
2023/07/12 07:11:36;;;;;;;18.48;15.60;;;;;;;28.33;54.44;93259.34;5051590;28;20227;-77
2023/07/12 07:14:02;;;;;;;16.60;14.00;;;;;;;28.13;54.22;93235.41;5057662;28;20255;-75
2023/07/12 07:16:27;;;;;;;24.50;15.15;;;;;;;28.55;51.70;93267.22;5050120;28;20218;-76
2023/07/12 07:18:53;;;;;;;22.55;14.50;;;;;;;28.69;52.01;93279.97;5050882;28;20227;-78
2023/07/12 07:21:19;;;;;;;20.52;14.77;;;;;;;27.94;55.14;93278.59;5057651;28;20212;-77
2023/07/12 07:23:44;;;;;;;20.38;15.90;;;;;;;28.42;52.28;93289.34;5050432;28;20189;-77
2023/07/12 07:26:10;;;;;;;17.73;15.75;;;;;;;28.40;52.04;93284.34;5048451;28;20286;-75
2023/07/12 07:28:37;;;;;;;17.75;15.05;;;;;;;27.19;56.83;93280.78;5051011;28;20217;-77
2023/07/12 07:31:03;;;;;;;17.63;15.93;;;;;;;27.64;57.18;93285.16;5050081;28;20633;-77
2023/07/12 07:33:29;;;;;;;18.85;16.65;;;;;;;27.72;55.69;93281.41;5050858;28;20272;-77
2023/07/12 07:35:55;;;;;;;16.98;15.27;;;;;;;28.13;53.98;93272.22;5062660;28;20224;-77
2023/07/12 07:38:26;;;;;;;20.45;15.40;;;;;;;28.00;54.76;93271.72;5049076;28;20221;-77
2023/07/12 07:40:53;;;;;;;19.35;15.50;;;;;;;28.04;55.11;93267.19;5050186;28;20233;-77
2023/07/12 07:43:18;;;;;;;22.80;15.80;;;;;;;28.43;53.71;93269.38;5050543;28;20186;-77
2023/07/12 07:45:43;;;;;;;19.35;15.82;;;;;;;28.15;54.82;93269.94;5049677;28;20214;-76
2023/07/12 07:48:10;;;;;;;19.95;15.80;;;;;;;27.62;56.26;93264.06;5050396;28;20193;-77
2023/07/12 07:50:36;;;;;;;18.05;14.70;;;;;;;28.13;56.33;93275.69;5055969;28;20236;-77
2023/07/12 07:53:02;;;;;;;16.48;14.18;;;;;;;28.49;53.77;93284.81;5056431;28;20185;-76
2023/07/12 07:55:27;;;;;;;17.92;14.95;;;;;;;28.33;55.26;93265.47;5049951;28;20232;-77
2023/07/12 07:57:53;;;;;;;16.13;14.52;;;;;;;28.44;55.88;93277.06;5050263;28;20201;-77
2023/07/12 08:00:18;;;;;;;24.30;15.82;;;;;;;28.49;56.53;93274.09;5048410;28;20221;-77
2023/07/12 08:02:44;;;;;;;16.77;14.55;;;;;;;27.72;58.13;93249.97;5049965;28;20197;-78
2023/07/12 08:05:11;;;;;;;17.27;15.50;;;;;;;28.71;54.27;93269.59;5049752;28;20244;-77
2023/07/12 08:07:42;;;;;;;20.00;14.25;;;;;;;28.44;56.09;93266.34;5050076;28;20176;-77
2023/07/12 08:10:11;;;;;;;18.92;14.95;;;;;;;28.27;56.17;93277.72;5049996;28;20297;-77
2023/07/12 08:12:37;;;;;;;18.63;14.60;;;;;;;28.07;56.15;93266.44;5057744;28;20263;-76
2023/07/12 08:15:03;;;;;;;17.98;14.48;;;;;;;27.71;58.19;93277.19;5049848;28;20249;-77
2023/07/12 08:17:29;;;;;;;16.77;14.57;;;;;;;28.60;55.69;93285.69;5048424;28;20217;-77
2023/07/12 08:19:54;;;;;;;21.17;15.13;;;;;;;28.32;57.51;93280.06;5052329;28;20228;-77
2023/07/12 08:22:20;;;;;;;17.35;15.00;;;;;;;28.67;55.93;93279.56;5048554;28;20181;-77
2023/07/12 08:24:46;;;;;;;17.80;15.10;;;;;;;28.41;57.06;93280.50;5048787;28;20225;-77
2023/07/12 08:27:12;;;;;;;16.23;14.48;;;;;;;28.30;58.11;93276.97;5049921;28;20190;-77
2023/07/12 08:29:38;;;;;;;16.90;14.60;;;;;;;28.67;55.44;93276.91;5047950;28;20248;-77
2023/07/12 08:32:04;;;;;;;16.95;15.23;;;;;;;28.51;57.50;93279.88;5049835;28;20208;-77
2023/07/12 08:34:29;;;;;;;18.38;14.68;;;;;;;28.14;58.69;93273.78;5048652;28;20261;-77
2023/07/12 08:36:55;;;;;;;16.75;15.15;;;;;;;28.64;57.10;93280.34;5049453;28;20190;-77
2023/07/12 08:39:20;;;;;;;18.85;15.45;;;;;;;28.76;57.69;93277.31;5049638;28;20277;-77
2023/07/12 08:41:45;;;;;;;17.75;15.23;;;;;;;28.80;57.25;93283.47;5048470;28;20194;-77
2023/07/12 08:44:14;;;;;;;17.55;15.23;;;;;;;28.74;55.64;93291.16;5049888;28;20204;-77
2023/07/12 08:46:47;;;;;;;17.42;14.85;;;;;;;29.08;54.71;93283.66;5061897;28;20216;-77
2023/07/12 08:49:16;;;;;;;16.40;14.60;;;;;;;28.95;55.29;93285.13;5049171;28;20190;-78
2023/07/12 08:51:42;;;;;;;18.33;15.43;;;;;;;28.98;53.20;93279.00;5049140;28;20293;-77
2023/07/12 08:54:22;;;;;;;16.52;14.93;;;;;;;29.00;52.74;93239.03;5049147;28;20245;-77
2023/07/12 08:56:48;;;;;;;18.83;15.18;;;;;;;29.30;52.54;93282.63;5049446;28;20906;-76
2023/07/12 08:59:15;;;;;;;20.38;15.30;;;;;;;29.24;52.00;93287.59;5049299;28;20276;-75
2023/07/12 09:01:49;;;;;;;18.08;13.95;;;;;;;29.27;52.36;93286.06;5045124;28;20208;-77
2023/07/12 09:04:31;;;;;;;17.58;15.75;;;;;;;28.84;52.04;93279.66;5041839;28;20185;-75
2023/07/12 09:06:59;;;;;;;23.52;15.48;;;;;;;29.31;51.95;93282.25;5081693;28;20203;-77
2023/07/12 09:09:26;;;;;;;18.25;16.25;;;;;;;29.46;51.08;93272.31;5048545;28;20204;-76
2023/07/12 09:11:52;;;;;;;16.42;14.15;;;;;;;29.44;51.74;93255.75;5052618;28;20177;-77
2023/07/12 09:14:20;;;;;;;16.55;14.95;;;;;;;29.87;51.13;93275.53;5053232;28;20228;-77
2023/07/12 09:16:54;;;;;;;23.45;14.82;;;;;;;29.83;51.70;93274.72;5049771;28;20729;-77
2023/07/12 09:19:23;;;;;;;17.13;15.05;;;;;;;29.56;54.21;93271.56;5047610;28;20261;-77
2023/07/12 09:21:54;;;;;;;19.42;15.02;;;;;;;29.61;50.63;93252.34;5056984;28;20203;-76
2023/07/12 09:24:22;;;;;;;19.55;15.88;;;;;;;29.68;51.36;93258.53;5047033;28;20192;-77
2023/07/12 09:26:49;;;;;;;16.80;15.00;;;;;;;29.66;49.94;93254.69;5048740;28;20197;-77
2023/07/12 09:29:18;;;;;;;16.33;14.70;;;;;;;29.93;49.60;93252.44;5048602;28;20191;-77
2023/07/12 09:31:45;;;;;;;19.27;14.63;;;;;;;29.66;50.35;93249.31;5049637;28;20257;-77
2023/07/12 09:34:23;;;;;;;17.38;14.65;;;;;;;29.83;50.96;93255.88;5048973;28;20204;-77
2023/07/12 09:36:57;;;;;;;18.20;14.70;;;;;;;29.73;50.11;93264.72;5071159;28;20212;-77
2023/07/12 09:39:23;;;;;;;16.23;14.52;;;;;;;30.02;49.23;93250.13;5072303;28;20242;-77
2023/07/12 09:41:53;;;;;;;16.77;15.00;;;;;;;30.19;47.81;93244.75;5073046;28;20182;-76
2023/07/12 09:44:18;;;;;;;19.60;15.77;;;;;;;29.78;49.95;93230.09;5072327;28;20204;-75
2023/07/12 09:46:46;;;;;;;19.05;14.52;;;;;;;29.81;51.89;93244.75;5072940;28;20183;-77
2023/07/12 09:49:19;;;;;;;19.25;15.65;;;;;;;29.73;51.82;93239.34;5072671;28;20191;-75
2023/07/12 09:51:57;;;;;;;20.25;15.35;;;;;;;30.22;48.83;93237.84;5072259;28;20695;-76
2023/07/12 09:54:33;;;;;;;18.83;15.10;;;;;;;30.38;47.66;93246.31;5071580;28;20181;-76
2023/07/12 09:57:17;;;;;;;20.27;15.48;;;;;;;30.44;48.72;93244.78;5071591;28;20192;-77
2023/07/12 09:59:49;;;;;;;17.13;14.70;;;;;;;29.89;48.43;93240.88;5067146;28;20237;-76
2023/07/12 10:02:34;;;;;;;16.25;14.68;;;;;;;30.34;48.21;93245.53;5072635;28;20207;-78
2023/07/12 10:05:04;;;;;;;15.48;14.05;;;;;;;30.42;49.52;93233.59;5072006;28;20228;-77
2023/07/12 10:07:48;;;;;;;15.35;13.75;;;;;;;30.83;47.35;93234.72;5072490;28;20166;-77
2023/07/12 10:10:39;;;;;;;17.55;14.82;;;;;;;31.02;47.83;93237.00;5061380;28;20234;-77
2023/07/12 10:13:29;;;;;;;16.65;14.85;;;;;;;30.90;46.41;93235.47;5070963;28;20954;-77
2023/07/12 10:15:57;;;;;;;14.90;13.60;;;;;;;30.83;44.76;93230.13;5072037;28;20352;-77
2023/07/12 10:18:25;;;;;;;16.35;14.45;;;;;;;30.92;46.53;93237.78;5072310;28;20201;-76
2023/07/12 10:20:52;;;;;;;16.38;13.52;;;;;;;30.80;47.75;93230.13;5078371;28;20277;-77
2023/07/12 10:23:21;;;;;;;20.27;14.40;;;;;;;30.83;46.12;93221.25;5071771;28;20177;-76
2023/07/12 10:25:54;;;;;;;14.95;13.55;;;;;;;31.12;45.09;93215.38;5071614;28;20236;-76
2023/07/12 10:28:40;;;;;;;15.40;13.80;;;;;;;30.92;43.37;93225.06;5071450;28;20178;-76
2023/07/12 10:31:32;;;;;;;16.48;14.88;;;;;;;30.02;45.80;93217.81;5070397;28;20239;-78
2023/07/12 10:34:12;;;;;;;15.57;13.98;;;;;;;30.17;45.41;93209.34;5053926;28;20216;-76
2023/07/12 10:36:38;;;;;;;13.63;12.10;;;;;;;30.85;45.94;93222.38;5071626;28;20228;-78
2023/07/12 10:39:05;;;;;;;13.35;11.82;;;;;;;31.29;42.44;93227.22;5071935;28;20280;-78
2023/07/12 10:41:38;;;;;;;12.60;10.93;;;;;;;31.38;40.81;93222.19;5071648;28;20213;-78
2023/07/12 10:44:14;;;;;;;12.57;11.05;;;;;;;31.09;40.02;93221.53;5070003;28;20173;-76
2023/07/12 10:46:47;;;;;;;13.50;10.90;;;;;;;31.42;41.68;93211.38;5071572;28;20205;-77
2023/07/12 10:49:19;;;;;;;12.02;10.93;;;;;;;31.51;41.72;93214.41;5063858;28;20253;-77
2023/07/12 10:52:04;;;;;;;12.07;10.90;;;;;;;31.13;39.99;93202.66;5068395;28;20209;-77
2023/07/12 10:54:29;;;;;;;11.80;10.65;;;;;;;31.27;39.75;93205.25;5071064;28;20181;-77
2023/07/12 10:57:03;;;;;;;11.02;9.95;;;;;;;31.18;37.87;93203.00;5063890;28;20207;-77
2023/07/12 10:59:31;;;;;;;11.27;10.10;;;;;;;30.99;39.63;93200.75;5070401;28;20216;-76
2023/07/12 11:02:19;;;;;;;14.18;10.88;;;;;;;31.20;40.23;93197.22;5070392;28;20200;-77
2023/07/12 11:04:46;;;;;;;11.98;10.85;;;;;;;31.34;40.48;93194.47;5070967;28;20217;-77
2023/07/12 11:07:12;;;;;;;13.07;10.45;;;;;;;31.20;38.83;93191.81;5071600;28;20257;-78
2023/07/12 11:09:45;;;;;;;12.40;11.27;;;;;;;31.47;40.65;93195.56;5071301;28;20233;-76
2023/07/12 11:12:30;;;;;;;12.25;10.48;;;;;;;31.47;40.58;93182.06;5075476;28;20192;-77
2023/07/12 11:15:22;;;;;;;10.90;10.00;;;;;;;31.44;39.47;93204.44;5055527;28;20297;-77
2023/07/12 11:18:03;;;;;;;10.60;9.73;;;;;;;31.32;40.07;93199.47;5051172;28;20210;-77
2023/07/12 11:20:34;;;;;;;12.05;10.80;;;;;;;31.42;40.41;93192.50;5077285;28;20231;-77